Time;durP1;ratioP1;P1;durP2;ratioP2;P2;SDS_P1;SDS_P2;PMS_P1;PMS_P2;Temp;Humidity;BMP_temperature;BMP_pressure;BME280_temperature;BME280_humidity;BME280_pressure;Samples;Min_cycle;Max_cycle;Signal;HPM_P1;HPM_P2
2023/04/12 00:00:37;;;;;;;0.20;0.20;;;;;;;;;;5057232;28;20241;-75
2023/04/12 00:03:06;;;;;;;0.20;0.20;;;;;;;;;;5076185;28;20276;-75
2023/04/12 00:05:33;;;;;;;0.20;0.20;;;;;;;;;;5056817;28;20271;-75
2023/04/12 00:08:02;;;;;;;0.20;0.20;;;;;;;;;;5076260;28;20202;-75
2023/04/12 00:10:28;;;;;;;0.20;0.20;;;;;;;;;;5056077;28;20215;-75
2023/04/12 00:12:56;;;;;;;0.20;0.20;;;;;;;;;;5077201;28;20469;-75
2023/04/12 00:15:22;;;;;;;0.20;0.20;;;;;;;;;;5054890;28;20240;-75
2023/04/12 00:17:48;;;;;;;0.20;0.20;;;;;;;;;;5077953;28;20257;-75
2023/04/12 00:20:15;;;;;;;0.20;0.20;;;;;;;;;;5054270;28;20531;-75
2023/04/12 00:22:42;;;;;;;0.20;0.20;;;;;;;;;;5078945;28;20539;-75
2023/04/12 00:25:08;;;;;;;0.20;0.20;;;;;;;;;;5063834;28;20457;-75
2023/04/12 00:27:34;;;;;;;0.20;0.20;;;;;;;;;;5068965;28;20241;-75
2023/04/12 00:30:03;;;;;;;0.20;0.20;;;;;;;;;;5063960;28;20223;-76
2023/04/12 00:32:29;;;;;;;0.20;0.20;;;;;;;;;;5068869;28;20251;-75
2023/04/12 00:34:56;;;;;;;0.20;0.20;;;;;;;;;;5063865;28;20484;-75
2023/04/12 00:37:22;;;;;;;0.20;0.20;;;;;;;;;;5068837;28;20463;-75
2023/04/12 00:39:49;;;;;;;0.20;0.20;;;;;;;;;;5063814;28;20243;-75
2023/04/12 00:42:15;;;;;;;0.10;0.10;;;;;;;;;;5068776;28;20239;-75
2023/04/12 00:44:41;;;;;;;0.20;0.20;;;;;;;;;;5063276;28;20244;-75
2023/04/12 00:47:09;;;;;;;0.20;0.20;;;;;;;;;;5068134;28;20454;-75
2023/04/12 00:49:36;;;;;;;0.20;0.20;;;;;;;;;;5064021;28;20388;-75
2023/04/12 00:52:04;;;;;;;0.20;0.20;;;;;;;;;;5067446;28;20239;-75
2023/04/12 00:54:31;;;;;;;0.20;0.20;;;;;;;;;;5068001;28;20242;-75
2023/04/12 00:56:57;;;;;;;0.20;0.20;;;;;;;;;;5070885;28;20490;-75
2023/04/12 00:59:24;;;;;;;0.20;0.20;;;;;;;;;;5069282;28;20204;-75
2023/04/12 01:01:51;;;;;;;0.20;0.20;;;;;;;;;;5069791;28;20308;-75
2023/04/12 01:04:21;;;;;;;0.20;0.20;;;;;;;;;;5070040;28;20262;-75
2023/04/12 01:06:53;;;;;;;0.20;0.20;;;;;;;;;;5069496;28;20505;-75
2023/04/12 01:09:23;;;;;;;0.20;0.20;;;;;;;;;;5069726;28;20207;-75
2023/04/12 01:11:56;;;;;;;0.20;0.20;;;;;;;;;;5069539;28;20657;-75
2023/04/12 01:14:28;;;;;;;0.20;0.20;;;;;;;;;;5069187;28;20273;-75
2023/04/12 01:16:57;;;;;;;0.20;0.20;;;;;;;;;;5069997;28;20239;-75
2023/04/12 01:19:34;;;;;;;0.20;0.20;;;;;;;;;;5069056;28;20363;-75
2023/04/12 01:22:06;;;;;;;0.20;0.20;;;;;;;;;;5070504;28;20250;-75
2023/04/12 01:24:37;;;;;;;0.20;0.20;;;;;;;;;;5067824;28;20269;-75
2023/04/12 01:27:10;;;;;;;0.20;0.20;;;;;;;;;;5071228;28;20298;-75
2023/04/12 01:29:38;;;;;;;0.20;0.20;;;;;;;;;;5067228;28;20204;-75
2023/04/12 01:32:05;;;;;;;0.10;0.10;;;;;;;;;;5071054;28;20305;-74
2023/04/12 01:34:33;;;;;;;0.20;0.20;;;;;;;;;;5067550;28;20207;-75
2023/04/12 01:37:01;;;;;;;0.10;0.10;;;;;;;;;;5070354;28;20262;-75
2023/04/12 01:39:29;;;;;;;0.10;0.10;;;;;;;;;;5068089;28;20204;-75
2023/04/12 01:41:56;;;;;;;0.20;0.20;;;;;;;;;;5069819;28;20631;-75
2023/04/12 01:44:22;;;;;;;0.20;0.20;;;;;;;;;;5068721;28;20406;-75
2023/04/12 01:46:50;;;;;;;0.20;0.20;;;;;;;;;;5067403;28;20239;-75
2023/04/12 01:49:17;;;;;;;0.20;0.20;;;;;;;;;;5068448;28;20399;-75
2023/04/12 01:51:49;;;;;;;0.20;0.20;;;;;;;;;;5066899;28;20241;-75
2023/04/12 01:54:18;;;;;;;0.13;0.13;;;;;;;;;;5067951;28;20430;-75
2023/04/12 01:56:46;;;;;;;0.20;0.20;;;;;;;;;;5066569;28;20249;-75
2023/04/12 01:59:14;;;;;;;0.20;0.20;;;;;;;;;;5068706;28;20204;-75
2023/04/12 02:01:41;;;;;;;0.20;0.20;;;;;;;;;;5065985;28;20250;-75
2023/04/12 02:04:09;;;;;;;0.20;0.20;;;;;;;;;;5068994;28;20298;-75
2023/04/12 02:06:36;;;;;;;0.20;0.20;;;;;;;;;;5065388;28;20246;-76
2023/04/12 02:09:04;;;;;;;0.20;0.20;;;;;;;;;;5070995;28;20274;-76
2023/04/12 02:11:31;;;;;;;0.20;0.20;;;;;;;;;;5065029;28;20273;-76
2023/04/12 02:13:57;;;;;;;0.10;0.10;;;;;;;;;;5070555;28;20253;-76
2023/04/12 02:16:23;;;;;;;0.17;0.17;;;;;;;;;;5063910;28;20265;-75
2023/04/12 02:18:50;;;;;;;0.20;0.20;;;;;;;;;;5070951;28;20204;-76
2023/04/12 02:21:18;;;;;;;0.20;0.20;;;;;;;;;;5062952;28;20246;-75
2023/04/12 02:23:44;;;;;;;0.17;0.17;;;;;;;;;;5071902;28;20298;-75
2023/04/12 02:26:11;;;;;;;0.10;0.10;;;;;;;;;;5062426;28;20300;-76
2023/04/12 02:28:37;;;;;;;0.20;0.20;;;;;;;;;;5072452;28;20282;-76
2023/04/12 02:31:04;;;;;;;0.20;0.20;;;;;;;;;;5061673;28;20273;-76
2023/04/12 02:33:31;;;;;;;0.17;0.17;;;;;;;;;;5073260;28;20211;-76
2023/04/12 02:35:58;;;;;;;0.20;0.20;;;;;;;;;;5060458;28;20641;-76
2023/04/12 02:38:25;;;;;;;0.23;0.23;;;;;;;;;;5074250;28;20208;-76
2023/04/12 02:40:52;;;;;;;0.20;0.20;;;;;;;;;;5059853;28;20597;-76
2023/04/12 02:43:18;;;;;;;0.20;0.20;;;;;;;;;;5075048;28;20243;-76
2023/04/12 02:45:45;;;;;;;0.20;0.20;;;;;;;;;;4993307;28;1874504;-75
2023/04/12 02:48:11;;;;;;;0.20;0.20;;;;;;;;;;5076666;28;20210;-76
2023/04/12 02:50:37;;;;;;;0.20;0.20;;;;;;;;;;5058692;28;20246;-75
2023/04/12 02:53:04;;;;;;;0.20;0.20;;;;;;;;;;5077472;28;20263;-76
2023/04/12 02:55:31;;;;;;;0.20;0.20;;;;;;;;;;5057876;28;20250;-75
2023/04/12 02:57:58;;;;;;;0.20;0.20;;;;;;;;;;5078415;28;20251;-76
2023/04/12 03:00:24;;;;;;;0.20;0.20;;;;;;;;;;5056628;28;20208;-76
2023/04/12 03:02:51;;;;;;;0.10;0.10;;;;;;;;;;5079484;28;20433;-76
2023/04/12 03:05:18;;;;;;;0.20;0.20;;;;;;;;;;5055923;28;20233;-75
2023/04/12 03:07:45;;;;;;;0.10;0.10;;;;;;;;;;5079837;28;20261;-76
2023/04/12 03:10:11;;;;;;;0.10;0.10;;;;;;;;;;5065235;28;20266;-76
2023/04/12 03:12:39;;;;;;;0.20;0.20;;;;;;;;;;5070234;28;20491;-76
2023/04/12 03:15:06;;;;;;;0.10;0.10;;;;;;;;;;5064703;28;20391;-76
2023/04/12 03:17:32;;;;;;;0.20;0.20;;;;;;;;;;5069888;28;20620;-76
2023/04/12 03:20:03;;;;;;;0.20;0.20;;;;;;;;;;5065290;28;20437;-76
2023/04/12 03:22:29;;;;;;;0.20;0.20;;;;;;;;;;5070006;28;20246;-76
2023/04/12 03:24:56;;;;;;;0.10;0.10;;;;;;;;;;5064891;28;20228;-76
2023/04/12 03:27:22;;;;;;;0.10;0.10;;;;;;;;;;5070046;28;20305;-76
2023/04/12 03:29:51;;;;;;;0.20;0.20;;;;;;;;;;5064881;28;20231;-77
2023/04/12 03:32:17;;;;;;;0.10;0.10;;;;;;;;;;5069905;28;20424;-76
2023/04/12 03:34:44;;;;;;;0.20;0.20;;;;;;;;;;5064957;28;20433;-74
2023/04/12 03:37:10;;;;;;;0.20;0.20;;;;;;;;;;5069502;28;20636;-76
2023/04/12 03:39:37;;;;;;;0.10;0.10;;;;;;;;;;5064743;28;20242;-76
2023/04/12 03:42:03;;;;;;;0.20;0.20;;;;;;;;;;5068454;28;20242;-76
2023/04/12 03:44:31;;;;;;;0.20;0.20;;;;;;;;;;5065444;28;20240;-75
2023/04/12 03:46:59;;;;;;;0.10;0.10;;;;;;;;;;5068036;28;20243;-76
2023/04/12 03:49:26;;;;;;;0.10;0.10;;;;;;;;;;5065959;28;20434;-76
2023/04/12 03:51:52;;;;;;;0.10;0.10;;;;;;;;;;5067425;28;20238;-76
2023/04/12 03:54:18;;;;;;;0.10;0.10;;;;;;;;;;5066378;28;20431;-76
2023/04/12 03:56:45;;;;;;;0.20;0.20;;;;;;;;;;5066434;28;20243;-76
2023/04/12 03:59:13;;;;;;;0.20;0.20;;;;;;;;;;5067114;28;20391;-76
2023/04/12 04:01:40;;;;;;;0.20;0.20;;;;;;;;;;5065628;28;20324;-76
2023/04/12 04:04:08;;;;;;;0.13;0.13;;;;;;;;;;5067387;28;20492;-76
2023/04/12 04:06:34;;;;;;;0.20;0.20;;;;;;;;;;5064891;28;20314;-76
2023/04/12 04:09:00;;;;;;;0.20;0.20;;;;;;;;;;5068295;28;20204;-75
2023/04/12 04:11:27;;;;;;;0.13;0.13;;;;;;;;;;5063838;28;20306;-76
2023/04/12 04:13:53;;;;;;;0.20;0.20;;;;;;;;;;5069040;28;20235;-76
2023/04/12 04:16:20;;;;;;;0.20;0.20;;;;;;;;;;5062788;28;20294;-75
2023/04/12 04:18:46;;;;;;;0.20;0.20;;;;;;;;;;5070208;28;20261;-76
2023/04/12 04:21:14;;;;;;;0.17;0.17;;;;;;;;;;5061910;28;20257;-76
2023/04/12 04:23:43;;;;;;;0.20;0.20;;;;;;;;;;5070915;28;20337;-76
2023/04/12 04:26:10;;;;;;;0.20;0.20;;;;;;;;;;5061383;28;20573;-76
2023/04/12 04:28:37;;;;;;;0.20;0.20;;;;;;;;;;5071231;28;20274;-76
2023/04/12 04:31:05;;;;;;;0.20;0.20;;;;;;;;;;5060788;28;20242;-76
2023/04/12 04:33:31;;;;;;;0.20;0.20;;;;;;;;;;5071858;28;20204;-76
2023/04/12 04:35:57;;;;;;;0.20;0.20;;;;;;;;;;5059814;28;20239;-75
2023/04/12 04:38:25;;;;;;;0.20;0.20;;;;;;;;;;5072685;28;20462;-76
2023/04/12 04:40:53;;;;;;;0.20;0.20;;;;;;;;;;5059083;28;20239;-75
2023/04/12 04:43:19;;;;;;;0.20;0.20;;;;;;;;;;5073255;28;20202;-76
2023/04/12 04:45:47;;;;;;;0.20;0.20;;;;;;;;;;5058161;28;20593;-75
2023/04/12 04:48:13;;;;;;;0.20;0.20;;;;;;;;;;5073962;28;20460;-76
2023/04/12 04:50:40;;;;;;;0.20;0.20;;;;;;;;;;5057433;28;20258;-76
2023/04/12 04:53:06;;;;;;;0.20;0.20;;;;;;;;;;5074681;28;20203;-76
2023/04/12 04:55:34;;;;;;;0.20;0.20;;;;;;;;;;5056646;28;20308;-76
2023/04/12 04:58:00;;;;;;;0.20;0.20;;;;;;;;;;5075185;28;20477;-76
2023/04/12 05:00:27;;;;;;;0.20;0.20;;;;;;;;;;5055964;28;20469;-75
2023/04/12 05:02:54;;;;;;;0.20;0.20;;;;;;;;;;5076548;28;20223;-75
2023/04/12 05:05:21;;;;;;;0.20;0.20;;;;;;;;;;5054953;28;20263;-75
2023/04/12 05:07:48;;;;;;;0.20;0.20;;;;;;;;;;5077096;28;20492;-75
2023/04/12 05:10:15;;;;;;;0.17;0.17;;;;;;;;;;5054171;28;20204;-75
2023/04/12 05:12:42;;;;;;;0.20;0.20;;;;;;;;;;5077792;28;20442;-75
2023/04/12 05:15:10;;;;;;;0.10;0.10;;;;;;;;;;5052991;28;20227;-75
2023/04/12 05:17:36;;;;;;;0.20;0.20;;;;;;;;;;5078083;28;20267;-76
2023/04/12 05:20:05;;;;;;;0.20;0.20;;;;;;;;;;5063418;28;20235;-76
2023/04/12 05:22:31;;;;;;;0.20;0.20;;;;;;;;;;5068419;28;20443;-76
2023/04/12 05:24:57;;;;;;;0.10;0.10;;;;;;;;;;5063491;28;20262;-76
2023/04/12 05:27:25;;;;;;;0.20;0.20;;;;;;;;;;5068765;28;20309;-76
2023/04/12 05:29:53;;;;;;;0.20;0.20;;;;;;;;;;5063847;28;20212;-75
2023/04/12 05:32:19;;;;;;;0.20;0.20;;;;;;;;;;5068309;28;20570;-76
2023/04/12 05:34:45;;;;;;;0.20;0.20;;;;;;;;;;5063644;28;20291;-76
2023/04/12 05:37:12;;;;;;;0.20;0.20;;;;;;;;;;5068269;28;20513;-76
2023/04/12 05:39:38;;;;;;;0.20;0.20;;;;;;;;;;5065422;28;20391;-76
2023/04/12 05:42:05;;;;;;;0.20;0.20;;;;;;;;;;5071698;28;20269;-76
2023/04/12 05:44:31;;;;;;;0.20;0.20;;;;;;;;;;5066956;28;20203;-75
2023/04/12 05:46:59;;;;;;;0.20;0.20;;;;;;;;;;5070675;28;20323;-75
2023/04/12 05:49:28;;;;;;;0.20;0.20;;;;;;;;;;5067761;28;20276;-76
2023/04/12 05:51:54;;;;;;;0.20;0.20;;;;;;;;;;5070010;28;20245;-76
2023/04/12 05:54:21;;;;;;;0.17;0.17;;;;;;;;;;5068288;28;20275;-75
2023/04/12 05:56:47;;;;;;;0.20;0.20;;;;;;;;;;5068862;28;20625;-76
2023/04/12 05:59:13;;;;;;;0.20;0.20;;;;;;;;;;5069094;28;20278;-75
2023/04/12 06:01:41;;;;;;;0.20;0.20;;;;;;;;;;5067842;28;20255;-76
2023/04/12 06:04:09;;;;;;;0.23;0.23;;;;;;;;;;5069771;28;20204;-75
2023/04/12 06:06:35;;;;;;;0.20;0.20;;;;;;;;;;5067165;28;20240;-76
2023/04/12 06:09:03;;;;;;;0.20;0.20;;;;;;;;;;5070310;28;20270;-76
2023/04/12 06:11:30;;;;;;;0.10;0.10;;;;;;;;;;5066424;28;20309;-75
2023/04/12 06:13:56;;;;;;;0.10;0.10;;;;;;;;;;5071021;28;20276;-76
2023/04/12 06:16:23;;;;;;;0.20;0.20;;;;;;;;;;5065360;28;20273;-75
2023/04/12 06:18:49;;;;;;;0.10;0.10;;;;;;;;;;5072245;28;20208;-76
2023/04/12 06:21:17;;;;;;;0.20;0.20;;;;;;;;;;5064338;28;20514;-76
2023/04/12 06:23:44;;;;;;;0.20;0.20;;;;;;;;;;5072627;28;20244;-75
2023/04/12 06:26:10;;;;;;;0.20;0.20;;;;;;;;;;5063486;28;20284;-76
2023/04/12 06:28:37;;;;;;;0.10;0.10;;;;;;;;;;5073497;28;20212;-75
2023/04/12 06:31:03;;;;;;;0.20;0.20;;;;;;;;;;5062702;28;20238;-75
2023/04/12 06:33:30;;;;;;;0.10;0.10;;;;;;;;;;5074069;28;20212;-75
2023/04/12 06:35:56;;;;;;;0.20;0.20;;;;;;;;;;5061775;28;20238;-76
2023/04/12 06:38:24;;;;;;;0.20;0.20;;;;;;;;;;5074925;28;20212;-75
2023/04/12 06:40:50;;;;;;;0.10;0.10;;;;;;;;;;5060974;28;20245;-75
2023/04/12 06:43:17;;;;;;;0.10;0.10;;;;;;;;;;5075237;28;20232;-75
2023/04/12 06:45:44;;;;;;;0.10;0.10;;;;;;;;;;5059559;28;20245;-76
2023/04/12 06:48:11;;;;;;;0.20;0.20;;;;;;;;;;5076274;28;20206;-76
2023/04/12 06:50:39;;;;;;;0.10;0.10;;;;;;;;;;5057915;28;20252;-75
2023/04/12 06:53:05;;;;;;;0.13;0.13;;;;;;;;;;5077262;28;20484;-75
2023/04/12 06:55:33;;;;;;;0.10;0.10;;;;;;;;;;5058040;28;20484;-76
2023/04/12 06:58:00;;;;;;;0.20;0.20;;;;;;;;;;5077688;28;20601;-75
2023/04/12 07:00:26;;;;;;;0.20;0.20;;;;;;;;;;5057962;28;20453;-75
2023/04/12 07:02:53;;;;;;;0.10;0.10;;;;;;;;;;5078677;28;20442;-76
2023/04/12 07:05:19;;;;;;;0.20;0.20;;;;;;;;;;5056433;28;20227;-75
2023/04/12 07:07:45;;;;;;;0.10;0.10;;;;;;;;;;5079246;28;20200;-75
2023/04/12 07:10:12;;;;;;;0.20;0.20;;;;;;;;;;5055586;28;20235;-75
2023/04/12 07:12:40;;;;;;;0.10;0.10;;;;;;;;;;5079848;28;20272;-75
2023/04/12 07:15:07;;;;;;;0.20;0.20;;;;;;;;;;5065166;28;20211;-76
2023/04/12 07:17:33;;;;;;;0.10;0.10;;;;;;;;;;5053329;28;20276;-76
2023/04/12 07:20:00;;;;;;;0.17;0.17;;;;;;;;;;5064690;28;20238;-75
2023/04/12 07:22:26;;;;;;;0.10;0.10;;;;;;;;;;5069953;28;20423;-76
2023/04/12 07:24:52;;;;;;;0.20;0.20;;;;;;;;;;5065044;28;20211;-75
2023/04/12 07:27:19;;;;;;;0.10;0.10;;;;;;;;;;5069660;28;20312;-75
2023/04/12 07:29:47;;;;;;;0.10;0.10;;;;;;;;;;5064836;28;20243;-76
2023/04/12 07:32:13;;;;;;;0.10;0.10;;;;;;;;;;5069707;28;20242;-75
2023/04/12 07:34:39;;;;;;;0.10;0.10;;;;;;;;;;5064406;28;20239;-76
2023/04/12 07:37:06;;;;;;;0.10;0.10;;;;;;;;;;5069430;28;20263;-76
2023/04/12 07:39:33;;;;;;;0.20;0.20;;;;;;;;;;5064917;28;20549;-76
2023/04/12 07:42:00;;;;;;;0.10;0.10;;;;;;;;;;5068460;28;20263;-75
2023/04/12 07:44:26;;;;;;;0.10;0.10;;;;;;;;;;5065641;28;20235;-75
2023/04/12 07:46:54;;;;;;;0.10;0.10;;;;;;;;;;5067353;28;20243;-76
2023/04/12 07:49:20;;;;;;;0.10;0.10;;;;;;;;;;5066282;28;20452;-75
2023/04/12 07:51:47;;;;;;;0.30;0.30;;;;;;;;;;5066896;28;20502;-75
2023/04/12 07:54:13;;;;;;;0.10;0.10;;;;;;;;;;5067200;28;20502;-74
2023/04/12 07:56:40;;;;;;;0.10;0.10;;;;;;;;;;5066943;28;20237;-75
2023/04/12 07:59:07;;;;;;;0.10;0.10;;;;;;;;;;5068318;28;20213;-76
2023/04/12 08:01:33;;;;;;;0.40;0.40;;;;;;;;;;5064683;28;20243;-74
2023/04/12 08:04:01;;;;;;;0.40;0.40;;;;;;;;;;5072358;28;20236;-75
2023/04/12 08:06:28;;;;;;;0.20;0.20;;;;;;;;;;5065162;28;20234;-75
2023/04/12 08:08:54;;;;;;;0.10;0.10;;;;;;;;;;5069113;28;20428;-75
2023/04/12 08:11:20;;;;;;;0.10;0.10;;;;;;;;;;5063221;28;20464;-75
2023/04/12 08:13:47;;;;;;;0.10;0.10;;;;;;;;;;5070017;28;20204;-75
2023/04/12 08:16:13;;;;;;;0.10;0.10;;;;;;;;;;5061854;28;20238;-75
2023/04/12 08:18:39;;;;;;;0.20;0.20;;;;;;;;;;5070628;28;20211;-75
2023/04/12 08:21:07;;;;;;;0.10;0.10;;;;;;;;;;5060974;28;20255;-75
2023/04/12 08:23:34;;;;;;;0.10;0.10;;;;;;;;;;5071648;28;20242;-75
2023/04/12 08:26:02;;;;;;;0.10;0.10;;;;;;;;;;5059956;28;20235;-75
2023/04/12 08:28:29;;;;;;;0.13;0.13;;;;;;;;;;5072317;28;20226;-75
2023/04/12 08:30:55;;;;;;;0.10;0.10;;;;;;;;;;5059472;28;20273;-75
2023/04/12 08:33:21;;;;;;;0.10;0.10;;;;;;;;;;5073166;28;20211;-75
2023/04/12 08:35:48;;;;;;;0.10;0.10;;;;;;;;;;5058385;28;20240;-75
2023/04/12 08:38:16;;;;;;;0.10;0.10;;;;;;;;;;5073760;28;20607;-75
2023/04/12 08:40:42;;;;;;;0.10;0.10;;;;;;;;;;5058075;28;20253;-74
2023/04/12 08:43:10;;;;;;;0.10;0.10;;;;;;;;;;5074426;28;20216;-75
2023/04/12 08:45:37;;;;;;;0.10;0.10;;;;;;;;;;5056731;28;20311;-75
2023/04/12 08:48:04;;;;;;;0.10;0.10;;;;;;;;;;5075252;28;20445;-75
2023/04/12 08:50:31;;;;;;;0.10;0.10;;;;;;;;;;5056442;28;20487;-75
2023/04/12 08:52:58;;;;;;;0.10;0.10;;;;;;;;;;5076043;28;20277;-76
2023/04/12 08:55:26;;;;;;;0.20;0.20;;;;;;;;;;5055484;28;20205;-75
2023/04/12 08:57:53;;;;;;;0.10;0.10;;;;;;;;;;5076477;28;20251;-76
2023/04/12 09:00:20;;;;;;;0.10;0.10;;;;;;;;;;5054821;28;20246;-76
2023/04/12 09:02:47;;;;;;;0.10;0.10;;;;;;;;;;5077324;28;20434;-75
2023/04/12 09:05:14;;;;;;;0.10;0.10;;;;;;;;;;5054108;28;20229;-74
2023/04/12 09:07:40;;;;;;;0.33;0.33;;;;;;;;;;5077740;28;20285;-74
2023/04/12 09:10:07;;;;;;;0.10;0.10;;;;;;;;;;5063575;28;20510;-74
2023/04/12 09:12:35;;;;;;;0.20;0.20;;;;;;;;;;5068424;28;20562;-74
2023/04/12 09:15:08;;;;;;;0.20;0.20;;;;;;;;;;5066261;28;20214;-74
2023/04/12 09:17:37;;;;;;;0.00;0.00;;;;;;;;;;5055711;28;20197;-74
2023/04/12 09:20:08;;;;;;;0.03;0.03;;;;;;;;;;5067451;28;20204;-74
2023/04/12 09:22:35;;;;;;;0.10;0.10;;;;;;;;;;5055717;28;20212;-75
2023/04/12 09:25:02;;;;;;;0.10;0.10;;;;;;;;;;5066842;28;20205;-76
2023/04/12 09:27:28;;;;;;;1.27;1.27;;;;;;;;;;5071999;28;20253;-75
2023/04/12 09:30:06;;;;;;;0.00;0.00;;;;;;;;;;5067091;28;20267;-75
2023/04/12 09:32:32;;;;;;;0.10;0.10;;;;;;;;;;5055484;28;20277;-75
2023/04/12 09:35:00;;;;;;;0.10;0.10;;;;;;;;;;5067141;28;20450;-75
2023/04/12 09:37:26;;;;;;;0.10;0.10;;;;;;;;;;5071929;28;20273;-75
2023/04/12 09:39:59;;;;;;;0.00;0.00;;;;;;;;;;5066673;28;20205;-76
2023/04/12 09:42:25;;;;;;;0.00;0.00;;;;;;;;;;5072559;28;20245;-75
2023/04/12 09:44:51;;;;;;;0.10;0.10;;;;;;;;;;5066583;28;20253;-75
2023/04/12 09:47:19;;;;;;;0.00;0.00;;;;;;;;;;5071758;28;20238;-74
2023/04/12 09:49:46;;;;;;;0.00;0.00;;;;;;;;;;5066661;28;20282;-74
2023/04/12 09:52:12;;;;;;;0.00;0.00;;;;;;;;;;5071750;28;20483;-75
2023/04/12 09:54:42;;;;;;;0.20;0.10;;;;;;;;;;5066811;28;20276;-75
2023/04/12 09:57:09;;;;;;;0.00;0.00;;;;;;;;;;5071474;28;20299;-75
2023/04/12 09:59:36;;;;;;;0.00;0.00;;;;;;;;;;5066664;28;20428;-74
2023/04/12 10:02:04;;;;;;;0.05;0.05;;;;;;;;;;5070934;28;20418;-75
2023/04/12 10:04:32;;;;;;;0.00;0.00;;;;;;;;;;5066767;28;20206;-75
2023/04/12 10:07:00;;;;;;;0.10;0.10;;;;;;;;;;5070138;28;20306;-75
2023/04/12 10:09:27;;;;;;;0.20;0.20;;;;;;;;;;5067196;28;20234;-75
2023/04/12 10:11:53;;;;;;;0.32;0.32;;;;;;;;;;5069403;28;20557;-75
2023/04/12 10:14:21;;;;;;;0.05;0.05;;;;;;;;;;5068062;28;20275;-75
2023/04/12 10:16:48;;;;;;;0.00;0.00;;;;;;;;;;5068565;28;20326;-75
2023/04/12 10:19:15;;;;;;;4.70;3.72;;;;;;;;;;5068553;28;20215;-75
2023/04/12 10:21:43;;;;;;;0.10;0.10;;;;;;;;;;5067817;28;20574;-75
2023/04/12 10:24:09;;;;;;;0.00;0.00;;;;;;;;;;5069237;28;20247;-75
2023/04/12 10:26:35;;;;;;;0.10;0.10;;;;;;;;;;5066389;28;20495;-75
2023/04/12 10:29:21;;;;;;;0.00;0.00;;;;;;;;;;5070021;28;20457;-75
2023/04/12 10:31:47;;;;;;;0.07;0.07;;;;;;;;;;5068071;28;20309;-75
2023/04/12 10:34:14;;;;;;;0.10;0.10;;;;;;;;;;5068297;28;20245;-73
2023/04/12 10:36:55;;;;;;;0.10;0.10;;;;;;;;;;5067469;28;20241;-74
2023/04/12 10:39:37;;;;;;;0.10;0.10;;;;;;;;;;5067292;28;20242;-74
2023/04/12 10:42:17;;;;;;;0.10;0.10;;;;;;;;;;5070364;28;20307;-74
2023/04/12 10:44:43;;;;;;;0.00;0.00;;;;;;;;;;5065476;28;20213;-74
2023/04/12 10:47:10;;;;;;;0.10;0.10;;;;;;;;;;5070718;28;20305;-75
2023/04/12 10:49:36;;;;;;;0.10;0.10;;;;;;;;;;5065706;28;20275;-75
2023/04/12 10:52:16;;;;;;;0.10;0.10;;;;;;;;;;5069897;28;20308;-74
2023/04/12 10:54:43;;;;;;;0.17;0.17;;;;;;;;;;5065335;28;20414;-74
2023/04/12 10:57:36;;;;;;;0.10;0.10;;;;;;;;;;5070569;28;20506;-74
2023/04/12 11:00:04;;;;;;;0.10;0.10;;;;;;;;;;5065403;28;20214;-74
2023/04/12 11:02:33;;;;;;;0.10;0.10;;;;;;;;;;5070409;28;20257;-74
2023/04/12 11:05:07;;;;;;;0.10;0.10;;;;;;;;;;5065434;28;20204;-74
2023/04/12 11:07:41;;;;;;;0.10;0.10;;;;;;;;;;5053697;28;20221;-74
2023/04/12 11:10:14;;;;;;;0.10;0.10;;;;;;;;;;5061873;28;20405;-74
2023/04/12 11:12:41;;;;;;;0.10;0.10;;;;;;;;;;5079846;28;20236;-74
2023/04/12 11:15:11;;;;;;;3.73;0.30;;;;;;;;;;5062927;28;20278;-75
2023/04/12 11:17:38;;;;;;;0.10;0.10;;;;;;;;;;5080015;28;20237;-74
2023/04/12 11:20:05;;;;;;;0.93;0.93;;;;;;;;;;5064715;28;20395;-71
2023/04/12 11:22:32;;;;;;;0.20;0.20;;;;;;;;;;5070006;28;20247;-73
2023/04/12 11:25:01;;;;;;;0.10;0.10;;;;;;;;;;5065008;28;20212;-72
2023/04/12 11:27:27;;;;;;;0.10;0.10;;;;;;;;;;5069743;28;20258;-75
2023/04/12 11:29:54;;;;;;;0.87;0.63;;;;;;;;;;5064900;28;20526;-73
2023/04/12 11:32:22;;;;;;;3.20;0.43;;;;;;;;;;5069707;28;20301;-72
2023/04/12 11:34:48;;;;;;;0.10;0.10;;;;;;;;;;5064822;28;20387;-71
2023/04/12 11:37:15;;;;;;;0.10;0.10;;;;;;;;;;5069064;28;20255;-75
2023/04/12 11:39:42;;;;;;;0.10;0.10;;;;;;;;;;5064800;28;20447;-74
2023/04/12 11:42:14;;;;;;;0.10;0.10;;;;;;;;;;5069707;28;20254;-74
2023/04/12 11:44:41;;;;;;;0.10;0.10;;;;;;;;;;5064387;28;20216;-74
2023/04/12 11:47:12;;;;;;;0.30;0.30;;;;;;;;;;5069339;28;20233;-74
2023/04/12 11:49:42;;;;;;;0.10;0.10;;;;;;;;;;5064716;28;20282;-74
2023/04/12 11:52:09;;;;;;;0.10;0.10;;;;;;;;;;5069497;28;20501;-74
2023/04/12 11:54:35;;;;;;;0.40;0.40;;;;;;;;;;5064488;28;20213;-74
2023/04/12 11:57:01;;;;;;;0.13;0.13;;;;;;;;;;5068303;28;20333;-74
2023/04/12 11:59:33;;;;;;;0.10;0.10;;;;;;;;;;5065160;28;20274;-74
2023/04/12 12:02:00;;;;;;;0.10;0.10;;;;;;;;;;5067731;28;20284;-73
2023/04/12 12:04:27;;;;;;;0.13;0.13;;;;;;;;;;5065468;28;20205;-74
2023/04/12 12:06:55;;;;;;;0.17;0.17;;;;;;;;;;5067228;28;20252;-73
2023/04/12 12:09:21;;;;;;;0.10;0.10;;;;;;;;;;5065640;28;20239;-74
2023/04/12 12:11:48;;;;;;;0.10;0.10;;;;;;;;;;5066481;28;20313;-75
2023/04/12 12:14:18;;;;;;;0.10;0.10;;;;;;;;;;5066424;28;20226;-74
2023/04/12 12:16:52;;;;;;;0.20;0.20;;;;;;;;;;5066025;28;20257;-76
2023/04/12 12:19:25;;;;;;;0.10;0.10;;;;;;;;;;5066115;28;20486;-75
2023/04/12 12:21:51;;;;;;;0.10;0.10;;;;;;;;;;5066959;28;20384;-75
2023/04/12 12:24:18;;;;;;;0.10;0.10;;;;;;;;;;5066024;28;20285;-75
2023/04/12 12:26:44;;;;;;;0.10;0.10;;;;;;;;;;5065707;28;20241;-75
2023/04/12 12:29:16;;;;;;;0.10;0.10;;;;;;;;;;5066912;28;20275;-75
2023/04/12 12:31:47;;;;;;;0.17;0.17;;;;;;;;;;5065631;28;20265;-75
2023/04/12 12:34:17;;;;;;;0.10;0.10;;;;;;;;;;5066533;28;20250;-75
2023/04/12 12:36:43;;;;;;;0.10;0.10;;;;;;;;;;5065605;28;20290;-76
2023/04/12 12:39:10;;;;;;;0.13;0.13;;;;;;;;;;5066997;28;20204;-75
2023/04/12 12:41:37;;;;;;;0.10;0.10;;;;;;;;;;5064660;28;20307;-75
2023/04/12 12:44:06;;;;;;;0.10;0.10;;;;;;;;;;5067333;28;20206;-75
2023/04/12 12:46:33;;;;;;;0.10;0.10;;;;;;;;;;5064012;28;20424;-75
2023/04/12 12:49:00;;;;;;;0.10;0.10;;;;;;;;;;5070816;28;20246;-75
2023/04/12 12:51:27;;;;;;;0.17;0.17;;;;;;;;;;5067494;28;20262;-75
2023/04/12 12:53:53;;;;;;;0.10;0.10;;;;;;;;;;5072908;28;20214;-75
2023/04/12 12:56:20;;;;;;;0.20;0.20;;;;;;;;;;5066264;28;20316;-75
2023/04/12 12:58:46;;;;;;;0.10;0.10;;;;;;;;;;5073768;28;20210;-75
2023/04/12 13:01:13;;;;;;;0.10;0.10;;;;;;;;;;5065406;28;20302;-75
2023/04/12 13:03:39;;;;;;;0.10;0.10;;;;;;;;;;5074424;28;20250;-74
2023/04/12 13:06:07;;;;;;;1.40;1.40;;;;;;;;;;5064518;28;20278;-75
2023/04/12 13:08:35;;;;;;;0.10;0.10;;;;;;;;;;5075349;28;20291;-75
2023/04/12 13:11:02;;;;;;;0.10;0.10;;;;;;;;;;5064059;28;20261;-75
2023/04/12 13:13:29;;;;;;;0.10;0.10;;;;;;;;;;5075831;28;20204;-75
2023/04/12 13:15:55;;;;;;;0.10;0.10;;;;;;;;;;5063170;28;20247;-75
2023/04/12 13:18:21;;;;;;;0.10;0.10;;;;;;;;;;5076615;28;20228;-74
2023/04/12 13:20:48;;;;;;;0.10;0.10;;;;;;;;;;5062087;28;20243;-75
2023/04/12 13:23:15;;;;;;;0.10;0.10;;;;;;;;;;5077585;28;20277;-75
2023/04/12 13:25:42;;;;;;;0.10;0.10;;;;;;;;;;5061379;28;20246;-74
2023/04/12 13:28:08;;;;;;;0.10;0.10;;;;;;;;;;5077864;28;20294;-75
2023/04/12 13:30:34;;;;;;;0.10;0.10;;;;;;;;;;5060483;28;20263;-76
2023/04/12 13:33:01;;;;;;;0.10;0.10;;;;;;;;;;5078677;28;20235;-72
2023/04/12 13:35:27;;;;;;;0.10;0.10;;;;;;;;;;5059394;28;20258;-72
2023/04/12 13:37:54;;;;;;;0.40;0.40;;;;;;;;;;5079905;28;20245;-72
2023/04/12 13:40:22;;;;;;;0.10;0.10;;;;;;;;;;5058356;28;20206;-72
2023/04/12 13:42:48;;;;;;;0.10;0.10;;;;;;;;;;5080554;28;20218;-73
2023/04/12 13:45:14;;;;;;;0.10;0.10;;;;;;;;;;5057233;28;20251;-73
2023/04/12 13:47:41;;;;;;;0.10;0.10;;;;;;;;;;5080969;28;20254;-73
2023/04/12 13:50:08;;;;;;;0.10;0.10;;;;;;;;;;5063605;28;20235;-73
2023/04/12 13:52:34;;;;;;;0.10;0.10;;;;;;;;;;5081980;28;20222;-73
2023/04/12 13:55:00;;;;;;;0.10;0.10;;;;;;;;;;5066739;28;20239;-73
2023/04/12 13:57:28;;;;;;;0.10;0.10;;;;;;;;;;5071543;28;20657;-73
2023/04/12 13:59:54;;;;;;;0.10;0.10;;;;;;;;;;5065915;28;20272;-74
2023/04/12 14:02:21;;;;;;;0.10;0.10;;;;;;;;;;5071686;28;20265;-73
2023/04/12 14:04:51;;;;;;;0.10;0.10;;;;;;;;;;5066589;28;20538;-72
2023/04/12 14:07:17;;;;;;;0.10;0.10;;;;;;;;;;5071508;28;20657;-72
2023/04/12 14:09:44;;;;;;;0.10;0.10;;;;;;;;;;5066821;28;20204;-70
2023/04/12 14:12:10;;;;;;;0.10;0.10;;;;;;;;;;5071345;28;20263;-72
2023/04/12 14:14:38;;;;;;;0.20;0.20;;;;;;;;;;5066458;28;20205;-72
2023/04/12 14:17:04;;;;;;;0.10;0.10;;;;;;;;;;5070724;28;20318;-70
2023/04/12 14:19:31;;;;;;;0.10;0.10;;;;;;;;;;5066483;28;20204;-72
2023/04/12 14:21:57;;;;;;;0.10;0.10;;;;;;;;;;5069817;28;20250;-70
2023/04/12 14:24:23;;;;;;;0.10;0.10;;;;;;;;;;5067417;28;20378;-72
2023/04/12 14:26:50;;;;;;;0.23;0.23;;;;;;;;;;5068766;28;20257;-74
2023/04/12 14:29:17;;;;;;;0.10;0.10;;;;;;;;;;5068152;28;20291;-74
2023/04/12 14:31:44;;;;;;;0.10;0.10;;;;;;;;;;5067900;28;20419;-73
2023/04/12 14:34:12;;;;;;;0.10;0.10;;;;;;;;;;5068884;28;20384;-74
2023/04/12 14:36:38;;;;;;;0.10;0.10;;;;;;;;;;5067246;28;20239;-73
2023/04/12 14:39:05;;;;;;;0.10;0.10;;;;;;;;;;5069329;28;20201;-73
2023/04/12 14:41:31;;;;;;;0.10;0.10;;;;;;;;;;5066166;28;20555;-75
2023/04/12 14:43:59;;;;;;;0.10;0.10;;;;;;;;;;5070105;28;20203;-75